Time;durP1;ratioP1;P1;durP2;ratioP2;P2;SDS_P1;SDS_P2;PMS_P1;PMS_P2;Temp;Humidity;BMP_temperature;BMP_pressure;BME280_temperature;BME280_humidity;BME280_pressure;Samples;Min_cycle;Max_cycle;Signal;HPM_P1;HPM_P2
2023/01/30 00:01:06;;;;;;;14.03;9.03;;;2.70;1.00;;;;;;5035408;28;20187;-63
2023/01/30 00:03:33;;;;;;;12.13;8.70;;;2.70;1.00;;;;;;5043179;28;20449;-61
2023/01/30 00:05:58;;;;;;;9.90;7.50;;;2.70;1.00;;;;;;5045085;28;20541;-62
2023/01/30 00:08:24;;;;;;;10.80;8.63;;;2.80;1.00;;;;;;5043687;28;20866;-63
2023/01/30 00:10:50;;;;;;;12.40;7.80;;;2.70;1.00;;;;;;5044593;28;20316;-63
2023/01/30 00:13:16;;;;;;;10.17;8.07;;;2.70;1.00;;;;;;5049583;28;20234;-63
2023/01/30 00:15:42;;;;;;;9.60;7.40;;;2.60;1.00;;;;;;5042773;28;20232;-63
2023/01/30 00:18:08;;;;;;;13.57;7.40;;;2.60;1.00;;;;;;5043866;28;20447;-63
2023/01/30 00:20:34;;;;;;;9.77;7.70;;;2.50;1.00;;;;;;5043157;28;21197;-63
2023/01/30 00:23:00;;;;;;;10.23;7.80;;;2.50;1.00;;;;;;5037921;28;20471;-62
2023/01/30 00:25:26;;;;;;;12.53;7.10;;;2.40;1.00;;;;;;5035772;28;20228;-62
2023/01/30 00:27:52;;;;;;;10.50;8.47;;;2.40;1.00;;;;;;5045524;28;20471;-62
2023/01/30 00:30:17;;;;;;;10.00;7.63;;;2.40;1.00;;;;;;5042641;28;20494;-62
2023/01/30 00:32:43;;;;;;;11.20;8.57;;;2.50;1.00;;;;;;5043939;28;20225;-62
2023/01/30 00:35:09;;;;;;;10.13;7.60;;;2.40;1.00;;;;;;5044619;28;20679;-62
2023/01/30 00:37:34;;;;;;;9.30;7.60;;;2.30;1.00;;;;;;5045546;28;20193;-63
2023/01/30 00:40:00;;;;;;;11.13;8.03;;;2.40;1.00;;;;;;5041216;28;20692;-62
2023/01/30 00:47:56;;;;;;;20.33;8.17;;;2.40;1.00;;;;;;5040886;28;20509;-62
2023/01/30 00:50:21;;;;;;;11.30;9.00;;;2.50;1.00;;;;;;5042034;28;20445;-61
2023/01/30 00:52:47;;;;;;;12.07;8.27;;;2.60;1.00;;;;;;5044744;28;20471;-63
2023/01/30 00:55:14;;;;;;;10.03;8.47;;;2.40;1.00;;;;;;5042218;28;20222;-62
2023/01/30 00:57:40;;;;;;;10.40;7.93;;;2.40;1.00;;;;;;5036473;28;20303;-64
2023/01/30 01:00:08;;;;;;;9.30;7.50;;;2.60;1.00;;;;;;5034840;28;20533;-62
2023/01/30 01:02:34;;;;;;;10.67;8.10;;;2.70;1.00;;;;;;5038350;28;20194;-63
2023/01/30 01:04:59;;;;;;;11.50;8.73;;;2.70;1.00;;;;;;5037003;28;20467;-62
2023/01/30 01:07:25;;;;;;;11.03;7.97;;;2.70;1.00;;;;;;5035685;28;20456;-62
2023/01/30 01:13:17;;;;;;;9.93;7.80;;;2.50;1.00;;;;;;5020080;28;20229;-63
2023/01/30 01:15:43;;;;;;;10.60;8.03;;;2.50;1.00;;;;;;5048816;28;20459;-63
2023/01/30 01:18:08;;;;;;;11.23;8.00;;;2.60;1.00;;;;;;5044095;28;20193;-62
2023/01/30 01:20:34;;;;;;;10.00;7.73;;;2.80;1.00;;;;;;5034013;28;22204;-63
2023/01/30 01:22:59;;;;;;;8.97;7.47;;;2.70;1.00;;;;;;5036475;28;20264;-61
2023/01/30 01:25:25;;;;;;;11.43;8.17;;;2.80;1.00;;;;;;5036681;28;20182;-62
2023/01/30 01:27:51;;;;;;;10.70;6.70;;;2.70;1.00;;;;;;5038487;28;20288;-62
2023/01/30 01:30:17;;;;;;;9.80;7.80;;;2.70;1.00;;;;;;5045281;28;20194;-62
2023/01/30 01:32:43;;;;;;;9.50;7.50;;;2.70;1.00;;;;;;5044932;28;20577;-63
2023/01/30 01:35:09;;;;;;;11.07;7.83;;;2.70;1.00;;;;;;5048324;28;20490;-63
2023/01/30 01:37:35;;;;;;;9.43;7.53;;;2.60;1.00;;;;;;5046484;28;20445;-63
2023/01/30 01:42:45;;;;;;;9.80;8.30;;;2.70;1.00;;;;;;5037786;28;20289;-63
2023/01/30 01:45:18;;;;;;;10.43;7.23;;;3.10;1.00;;;;;;5044438;28;20535;-63
2023/01/30 01:47:56;;;;;;;8.93;7.53;;;3.10;1.00;;;;;;5042260;28;20182;-62
2023/01/30 01:50:38;;;;;;;12.03;8.30;;;2.90;1.00;;;;;;5043203;28;20497;-63
2023/01/30 01:53:05;;;;;;;11.40;8.90;;;2.60;1.00;;;;;;5047057;28;20797;-62
2023/01/30 01:55:31;;;;;;;9.40;7.73;;;3.00;1.00;;;;;;5041055;28;21815;-63
2023/01/30 01:58:26;;;;;;;10.60;8.10;;;2.90;1.00;;;;;;5047237;28;20462;-62
2023/01/30 02:00:53;;;;;;;13.03;8.60;;;2.80;1.00;;;;;;5027250;28;20210;-63
2023/01/30 02:03:23;;;;;;;11.17;8.97;;;2.80;1.00;;;;;;5048066;28;20532;-62
2023/01/30 02:05:54;;;;;;;10.90;7.47;;;2.80;1.00;;;;;;5043955;28;20484;-60
2023/01/30 02:08:32;;;;;;;11.27;7.53;;;2.90;1.00;;;;;;5045772;28;20509;-63
2023/01/30 02:11:23;;;;;;;10.43;7.43;;;3.10;1.00;;;;;;5040493;28;20451;-61
2023/01/30 02:13:49;;;;;;;10.30;7.33;;;3.10;1.00;;;;;;5046042;28;20776;-63
2023/01/30 02:16:16;;;;;;;11.60;8.27;;;3.00;1.00;;;;;;5041012;28;20897;-63
2023/01/30 02:18:43;;;;;;;10.27;8.20;;;3.00;1.00;;;;;;5044515;28;20442;-62
2023/01/30 02:21:52;;;;;;;9.90;7.70;;;3.10;1.00;;;;;;5042193;28;20920;-62
2023/01/30 02:24:49;;;;;;;13.43;7.40;;;2.90;1.00;;;;;;5047269;28;20441;-64
2023/01/30 02:27:38;;;;;;;10.50;8.40;;;3.20;1.00;;;;;;5044206;28;20460;-63
2023/01/30 02:30:12;;;;;;;12.10;8.37;;;3.10;1.00;;;;;;5041117;28;20960;-63
2023/01/30 02:32:41;;;;;;;10.87;8.37;;;3.10;1.00;;;;;;5048055;28;20960;-61
2023/01/30 02:35:16;;;;;;;9.60;7.70;;;2.90;1.00;;;;;;5043449;28;20484;-63
2023/01/30 02:38:28;;;;;;;10.80;8.33;;;3.10;1.00;;;;;;5047299;28;20445;-62
2023/01/30 02:40:57;;;;;;;12.37;8.63;;;3.20;1.00;;;;;;5048810;28;20448;-61
2023/01/30 02:44:01;;;;;;;10.90;8.20;;;3.10;1.00;;;;;;5049752;28;20440;-63
2023/01/30 02:46:52;;;;;;;10.40;8.17;;;3.10;1.00;;;;;;5044816;28;20452;-63
2023/01/30 02:49:29;;;;;;;10.20;8.03;;;3.30;1.00;;;;;;5040848;28;20945;-63
2023/01/30 02:51:59;;;;;;;10.70;8.23;;;3.30;1.00;;;;;;5041172;28;20476;-63
2023/01/30 02:54:24;;;;;;;11.00;8.00;;;3.40;1.00;;;;;;5033744;28;20479;-61
2023/01/30 02:56:53;;;;;;;12.37;9.10;;;3.30;1.00;;;;;;5035451;28;20448;-62
2023/01/30 02:59:32;;;;;;;11.13;7.73;;;3.20;1.00;;;;;;5039860;28;20186;-61
2023/01/30 03:02:31;;;;;;;8.47;7.40;;;3.40;1.00;;;;;;5046062;28;20450;-63
2023/01/30 03:05:30;;;;;;;9.20;6.63;;;3.40;1.00;;;;;;5048826;28;20898;-62
2023/01/30 03:07:59;;;;;;;10.80;7.23;;;3.50;1.00;;;;;;5043587;28;20502;-62
2023/01/30 03:10:32;;;;;;;11.43;7.93;;;3.50;1.00;;;;;;5047681;28;20784;-63
2023/01/30 03:13:19;;;;;;;11.10;8.00;;;3.60;1.00;;;;;;5044681;28;20523;-63
2023/01/30 03:15:51;;;;;;;9.87;7.60;;;3.60;1.00;;;;;;5030086;28;20872;-62
2023/01/30 03:18:18;;;;;;;9.23;7.30;;;3.60;1.00;;;;;;5033559;28;20452;-63
2023/01/30 03:20:44;;;;;;;10.93;8.33;;;3.70;1.00;;;;;;5031716;28;20488;-62
2023/01/30 03:23:10;;;;;;;8.60;6.90;;;3.60;1.00;;;;;;5033023;28;20885;-62
2023/01/30 03:25:38;;;;;;;7.97;7.17;;;3.70;1.00;;;;;;5039559;28;20532;-62
2023/01/30 03:28:05;;;;;;;8.97;6.93;;;3.70;1.00;;;;;;5044439;28;20478;-62
2023/01/30 03:30:31;;;;;;;8.57;7.30;;;3.70;1.00;;;;;;5035265;28;20482;-61
2023/01/30 03:32:57;;;;;;;7.80;6.80;;;3.70;1.00;;;;;;5046920;28;20471;-62
2023/01/30 03:35:22;;;;;;;9.60;7.07;;;3.60;1.00;;;;;;5045556;28;20527;-63
2023/01/30 03:37:48;;;;;;;9.30;7.00;;;3.70;1.00;;;;;;5045717;28;20244;-62
2023/01/30 03:40:15;;;;;;;8.90;6.73;;;3.70;1.00;;;;;;5041137;28;20199;-62
2023/01/30 03:42:41;;;;;;;8.80;6.80;;;3.60;1.00;;;;;;5042777;28;20801;-62
2023/01/30 03:45:08;;;;;;;10.70;7.20;;;3.70;1.00;;;;;;5037233;28;20489;-61
2023/01/30 03:47:34;;;;;;;11.73;6.67;;;3.80;1.00;;;;;;5037789;28;20509;-61
2023/01/30 03:49:59;;;;;;;9.80;6.23;;;3.80;1.00;;;;;;5044874;28;20452;-62
2023/01/30 03:52:25;;;;;;;9.53;6.77;;;3.80;1.00;;;;;;5044229;28;20288;-61
2023/01/30 03:54:51;;;;;;;9.10;6.93;;;3.80;1.00;;;;;;5040871;28;20209;-61
2023/01/30 03:57:16;;;;;;;7.57;6.00;;;3.90;1.00;;;;;;5047198;28;20214;-63
2023/01/30 03:59:42;;;;;;;7.70;6.20;;;3.90;1.00;;;;;;5035829;28;20278;-62
2023/01/30 04:02:08;;;;;;;10.80;6.77;;;4.00;1.00;;;;;;5039688;28;20202;-63
2023/01/30 04:04:34;;;;;;;9.33;6.47;;;4.00;1.00;;;;;;5042380;28;20272;-62
2023/01/30 04:07:00;;;;;;;8.73;6.20;;;3.90;1.00;;;;;;5044323;28;20219;-63
2023/01/30 04:09:25;;;;;;;8.13;6.70;;;3.90;1.00;;;;;;5043777;28;20480;-62
2023/01/30 04:11:51;;;;;;;8.23;6.43;;;3.90;1.00;;;;;;5042958;28;20228;-61
2023/01/30 04:14:17;;;;;;;7.50;6.10;;;3.90;1.00;;;;;;5038017;28;20187;-61
2023/01/30 04:16:42;;;;;;;7.50;5.60;;;4.10;1.00;;;;;;5040317;28;20981;-62
2023/01/30 04:19:08;;;;;;;10.30;6.90;;;4.10;1.00;;;;;;5043644;28;20200;-63
2023/01/30 04:21:33;;;;;;;11.03;7.10;;;4.20;1.00;;;;;;5039662;28;20199;-62
2023/01/30 04:23:59;;;;;;;8.50;6.60;;;4.20;1.00;;;;;;5040549;28;20300;-62
2023/01/30 04:26:25;;;;;;;7.23;6.00;;;4.10;1.00;;;;;;5040328;28;20192;-61
2023/01/30 04:28:50;;;;;;;8.97;6.90;;;4.20;1.00;;;;;;5045980;28;20705;-61
2023/01/30 04:31:16;;;;;;;8.50;7.20;;;4.20;1.00;;;;;;5044940;28;20263;-61
2023/01/30 04:33:42;;;;;;;8.13;6.47;;;4.30;1.00;;;;;;5049435;28;20190;-62
2023/01/30 04:36:09;;;;;;;8.60;7.30;;;4.30;1.00;;;;;;5042504;28;20747;-62
2023/01/30 04:38:35;;;;;;;8.63;7.27;;;4.10;1.00;;;;;;5051409;28;20262;-60
2023/01/30 04:41:01;;;;;;;8.80;6.70;;;4.10;1.00;;;;;;5046818;28;20931;-62
2023/01/30 04:43:28;;;;;;;8.30;7.27;;;4.10;1.00;;;;;;5059538;28;20461;-59
2023/01/30 04:45:54;;;;;;;9.23;6.97;;;4.10;1.00;;;;;;5061200;28;20429;-59
2023/01/30 04:48:22;;;;;;;13.67;7.53;;;4.30;1.00;;;;;;5056925;28;20438;-60
2023/01/30 04:50:50;;;;;;;9.80;7.77;;;4.50;1.00;;;;;;5061276;28;20478;-59
2023/01/30 04:53:16;;;;;;;9.17;6.60;;;4.50;1.00;;;;;;5059027;28;20476;-59
2023/01/30 04:55:42;;;;;;;8.73;6.50;;;4.60;1.00;;;;;;5053897;28;20839;-61
2023/01/30 04:58:07;;;;;;;10.13;7.07;;;4.60;1.00;;;;;;5059522;28;20448;-61
2023/01/30 05:00:33;;;;;;;10.60;8.27;;;4.60;1.00;;;;;;5047731;28;20544;-62
2023/01/30 05:02:59;;;;;;;9.23;7.23;;;4.70;1.00;;;;;;5049529;28;20624;-62
2023/01/30 05:05:26;;;;;;;10.43;8.17;;;4.70;1.00;;;;;;5048202;28;20474;-62
2023/01/30 05:07:52;;;;;;;9.67;7.50;;;4.60;1.00;;;;;;5048163;28;20477;-61
2023/01/30 05:10:19;;;;;;;9.47;7.73;;;4.50;1.00;;;;;;5048017;28;20547;-63
2023/01/30 05:12:45;;;;;;;10.20;7.47;;;4.60;1.00;;;;;;5049522;28;21009;-60
2023/01/30 05:15:12;;;;;;;11.37;7.57;;;4.60;1.00;;;;;;5042986;28;20473;-61
2023/01/30 05:17:38;;;;;;;8.50;6.77;;;4.70;1.00;;;;;;5057613;28;20542;-62
2023/01/30 05:20:05;;;;;;;8.83;7.00;;;4.70;1.00;;;;;;5046525;28;20444;-63
2023/01/30 05:22:31;;;;;;;9.77;7.23;;;4.70;1.00;;;;;;5058380;28;20456;-62
2023/01/30 05:24:56;;;;;;;9.90;7.60;;;4.70;1.00;;;;;;5050270;28;20446;-61
2023/01/30 05:27:22;;;;;;;8.87;6.60;;;4.80;1.00;;;;;;5039996;28;20281;-62
2023/01/30 05:29:48;;;;;;;10.43;8.30;;;4.90;1.00;;;;;;5047491;28;20198;-62
2023/01/30 05:32:15;;;;;;;7.37;6.57;;;4.80;1.00;;;;;;5045769;28;20194;-62
2023/01/30 05:34:41;;;;;;;7.60;6.63;;;4.90;1.00;;;;;;5046938;28;20205;-61
2023/01/30 05:37:06;;;;;;;9.50;7.70;;;4.90;1.00;;;;;;5049690;28;20445;-62
2023/01/30 05:39:32;;;;;;;7.93;6.03;;;4.80;1.00;;;;;;5045810;28;20518;-62
2023/01/30 05:41:58;;;;;;;9.97;7.47;;;4.20;1.00;;;;;;5049053;28;20932;-61
2023/01/30 05:44:23;;;;;;;8.93;6.73;;;5.00;1.00;;;;;;5057670;28;20182;-62
2023/01/30 05:46:49;;;;;;;9.03;7.43;;;4.90;1.00;;;;;;5046394;28;20195;-62
2023/01/30 05:49:15;;;;;;;9.20;7.10;;;4.90;1.00;;;;;;5043066;28;20197;-61
2023/01/30 05:51:41;;;;;;;11.03;9.10;;;4.80;1.00;;;;;;5048952;28;20483;-62
2023/01/30 05:54:07;;;;;;;10.07;8.00;;;4.70;1.00;;;;;;5049437;28;20440;-61
2023/01/30 05:56:33;;;;;;;10.20;7.00;;;4.70;1.00;;;;;;5048165;28;20504;-62
2023/01/30 05:59:00;;;;;;;10.90;8.57;;;4.70;1.00;;;;;;5048845;28;20196;-62
2023/01/30 06:01:26;;;;;;;9.70;7.37;;;4.90;1.00;;;;;;5049598;28;20590;-62
2023/01/30 06:03:52;;;;;;;12.67;8.20;;;4.90;1.00;;;;;;5047574;28;20446;-63
2023/01/30 06:06:19;;;;;;;11.23;8.27;;;4.90;1.00;;;;;;5048131;28;20447;-62
2023/01/30 06:08:44;;;;;;;10.53;8.93;;;5.00;1.00;;;;;;5047752;28;20487;-62
2023/01/30 06:11:13;;;;;;;12.33;8.50;;;5.00;1.00;;;;;;5048689;28;20449;-62
2023/01/30 06:13:39;;;;;;;7.20;6.47;;;4.90;1.00;;;;;;5044400;28;20190;-61
2023/01/30 06:16:06;;;;;;;10.87;7.10;;;5.00;1.00;;;;;;5042460;28;20499;-62
2023/01/30 06:18:31;;;;;;;8.03;6.83;;;5.00;1.00;;;;;;5047174;28;20264;-62
2023/01/30 06:20:57;;;;;;;7.03;6.33;;;5.00;1.00;;;;;;5046825;28;20461;-62
2023/01/30 06:23:23;;;;;;;9.93;7.83;;;4.90;1.00;;;;;;5049144;28;20265;-62
2023/01/30 06:25:50;;;;;;;9.97;8.13;;;4.90;1.00;;;;;;5046387;28;20716;-62
2023/01/30 06:28:16;;;;;;;8.67;6.97;;;5.00;1.00;;;;;;5049455;28;20189;-64
2023/01/30 06:30:42;;;;;;;9.70;7.80;;;5.00;1.00;;;;;;5049782;28;20452;-62
2023/01/30 06:36:14;;;;;;;8.93;7.07;;;5.00;1.00;;;;;;4985686;28;20482;-63
2023/01/30 06:38:40;;;;;;;8.63;7.40;;;5.10;1.00;;;;;;5044786;28;20526;-62
2023/01/30 06:41:05;;;;;;;10.27;7.90;;;5.10;1.00;;;;;;5048330;28;20180;-62
2023/01/30 06:43:31;;;;;;;10.23;8.53;;;5.10;1.00;;;;;;5044737;28;20218;-62
2023/01/30 06:46:00;;;;;;;8.20;6.93;;;5.10;1.00;;;;;;5047899;28;20220;-62
2023/01/30 06:48:26;;;;;;;7.60;6.80;;;5.10;1.00;;;;;;5049603;28;20174;-63
2023/01/30 06:50:51;;;;;;;10.13;7.33;;;5.10;1.00;;;;;;5048476;28;20452;-62
2023/01/30 06:53:17;;;;;;;11.43;8.10;;;5.00;1.00;;;;;;5048489;28;20564;-62
2023/01/30 06:55:43;;;;;;;10.03;6.73;;;5.00;1.00;;;;;;5044065;28;20261;-62
2023/01/30 06:58:10;;;;;;;7.53;6.73;;;4.90;1.00;;;;;;5046416;28;20182;-62
2023/01/30 07:00:39;;;;;;;9.73;7.60;;;4.90;1.00;;;;;;5044375;28;20178;-62
2023/01/30 07:03:08;;;;;;;10.43;7.67;;;4.80;1.00;;;;;;5049875;28;20428;-62
2023/01/30 07:05:35;;;;;;;8.87;7.37;;;4.70;1.00;;;;;;5047126;28;20679;-62
2023/01/30 07:08:01;;;;;;;9.20;7.30;;;4.60;1.00;;;;;;5048146;28;20453;-62
2023/01/30 07:10:28;;;;;;;11.30;8.20;;;4.60;1.00;;;;;;5046329;28;20527;-63
2023/01/30 07:12:53;;;;;;;11.90;8.07;;;4.50;1.00;;;;;;5047188;28;20959;-61
2023/01/30 07:15:19;;;;;;;8.57;6.77;;;4.50;1.00;;;;;;5046108;28;20472;-62
2023/01/30 07:17:44;;;;;;;9.33;7.43;;;4.50;1.00;;;;;;5044988;28;20186;-62
2023/01/30 07:20:10;;;;;;;12.60;7.43;;;4.40;1.00;;;;;;5046375;28;20866;-62
2023/01/30 07:22:36;;;;;;;8.27;7.33;;;4.50;1.00;;;;;;5046185;28;20195;-64
2023/01/30 07:25:02;;;;;;;9.17;7.80;;;4.60;3.70;;;;;;5047260;28;21263;-63
2023/01/30 07:27:28;;;;;;;8.90;7.37;;;4.60;26.30;;;;;;5046761;28;20186;-62
2023/01/30 07:29:53;;;;;;;8.90;7.03;;;4.60;1.00;;;;;;5044975;28;20315;-63
2023/01/30 07:32:19;;;;;;;8.07;6.57;;;4.60;1.00;;;;;;5046320;28;20198;-63
2023/01/30 07:34:47;;;;;;;9.40;6.97;;;4.80;1.00;;;;;;5045104;28;20191;-62
2023/01/30 07:37:13;;;;;;;7.70;6.30;;;4.80;54.50;;;;;;5043430;28;20287;-61
2023/01/30 07:39:39;;;;;;;9.17;6.93;;;4.90;7.80;;;;;;5048443;28;20440;-63
2023/01/30 07:42:05;;;;;;;8.27;6.70;;;4.90;1.00;;;;;;5046225;28;20449;-62
2023/01/30 07:44:32;;;;;;;6.90;5.93;;;4.90;1.00;;;;;;5044333;28;20444;-62
2023/01/30 07:46:59;;;;;;;7.43;6.10;;;5.00;1.00;;;;;;5048082;28;20807;-62
2023/01/30 07:49:24;;;;;;;7.27;5.57;;;5.00;1.00;;;;;;5053307;28;20936;-62
2023/01/30 07:51:51;;;;;;;7.00;5.43;;;5.10;1.00;;;;;;5040635;28;20469;-62
2023/01/30 07:54:16;;;;;;;7.07;5.43;;;5.30;1.00;;;;;;5043572;28;20705;-63
2023/01/30 07:56:42;;;;;;;7.80;6.07;;;5.30;1.00;;;;;;5047206;28;20468;-62
2023/01/30 07:59:12;;;;;;;6.90;5.87;;;5.30;1.00;;;;;;5047360;28;20188;-62
2023/01/30 08:01:37;;;;;;;7.73;5.80;;;5.30;1.00;;;;;;5044843;28;20194;-62
2023/01/30 08:04:03;;;;;;;7.87;6.13;;;5.20;1.00;;;;;;5051316;28;20453;-63
2023/01/30 08:06:29;;;;;;;6.97;5.00;;;5.30;1.00;;;;;;5051264;28;20551;-63
2023/01/30 08:08:55;;;;;;;6.87;5.70;;;5.40;1.00;;;;;;5047211;28;20190;-62
2023/01/30 08:11:20;;;;;;;6.03;5.30;;;5.20;1.00;;;;;;5051552;28;20767;-62
2023/01/30 08:13:46;;;;;;;6.47;5.50;;;5.00;1.00;;;;;;5051185;28;20356;-62
2023/01/30 08:16:12;;;;;;;6.63;5.20;;;5.00;1.00;;;;;;5048146;28;20286;-62
2023/01/30 08:18:38;;;;;;;6.27;4.83;;;5.10;1.00;;;;;;5048667;28;20190;-62
2023/01/30 08:21:05;;;;;;;7.00;4.80;;;5.10;1.00;;;;;;5048047;28;20539;-62
2023/01/30 08:23:32;;;;;;;7.63;5.73;;;5.20;1.00;;;;;;5046078;28;20190;-61
2023/01/30 08:26:03;;;;;;;7.33;5.70;;;5.20;1.00;;;;;;5052666;28;20477;-59
2023/01/30 08:28:29;;;;;;;5.97;5.13;;;5.00;1.00;;;;;;5052996;28;20476;-61
2023/01/30 08:30:55;;;;;;;7.87;5.23;;;4.70;1.00;;;;;;5052044;28;20536;-61
2023/01/30 08:33:22;;;;;;;5.33;4.77;;;5.10;1.00;;;;;;5064108;28;20467;-61
2023/01/30 08:35:48;;;;;;;5.90;5.30;;;4.70;15.70;;;;;;5052166;28;20872;-61
2023/01/30 08:38:14;;;;;;;5.60;4.87;;;3.80;78.40;;;;;;5047715;28;20448;-62
2023/01/30 08:40:39;;;;;;;6.67;5.40;;;4.70;99.90;;;;;;5049709;28;20190;-62
2023/01/30 08:43:06;;;;;;;6.53;5.13;;;4.80;99.90;;;;;;5052177;28;20209;-62
2023/01/30 08:45:32;;;;;;;6.00;5.27;;;4.90;99.90;;;;;;5047932;28;20491;-62
2023/01/30 08:48:02;;;;;;;5.37;4.20;;;4.90;29.00;;;;;;5050949;28;20840;-61
2023/01/30 08:50:28;;;;;;;4.50;3.90;;;4.90;4.60;;;;;;5048470;28;20456;-62
2023/01/30 08:52:54;;;;;;;4.43;4.03;;;4.90;53.60;;;;;;5068508;28;20449;-62
2023/01/30 08:55:20;;;;;;;3.77;3.43;;;4.90;45.40;;;;;;5052919;28;20984;-63
2023/01/30 08:57:46;;;;;;;6.20;3.87;;;5.00;25.50;;;;;;5049910;28;20195;-62
2023/01/30 09:00:13;;;;;;;4.30;3.67;;;5.10;15.60;;;;;;5047298;28;20965;-61
2023/01/30 09:02:38;;;;;;;4.00;3.30;;;5.20;20.50;;;;;;5050767;28;20447;-62
2023/01/30 09:05:04;;;;;;;4.13;3.50;;;5.20;1.00;;;;;;5051309;28;20419;-62
2023/01/30 09:07:30;;;;;;;4.70;3.50;;;5.20;43.20;;;;;;5050767;28;20221;-62
2023/01/30 09:09:56;;;;;;;6.20;5.13;;;5.20;1.00;;;;;;5049261;28;20472;-63
2023/01/30 09:12:22;;;;;;;4.37;3.10;;;5.20;16.20;;;;;;5051683;28;20479;-63
2023/01/30 09:14:47;;;;;;;4.27;3.80;;;5.20;30.10;;;;;;5050608;28;20194;-63
2023/01/30 09:17:13;;;;;;;5.00;3.87;;;5.20;1.00;;;;;;5049613;28;20222;-62
2023/01/30 09:19:38;;;;;;;3.23;2.93;;;5.20;1.00;;;;;;5049989;28;20528;-63
2023/01/30 09:22:06;;;;;;;3.50;3.20;;;5.20;1.00;;;;;;5065446;28;20192;-62
2023/01/30 09:24:32;;;;;;;4.40;3.77;;;5.30;1.00;;;;;;5046448;28;20337;-63
2023/01/30 09:26:58;;;;;;;6.97;5.10;;;5.40;1.00;;;;;;5050982;28;20845;-63
2023/01/30 09:29:24;;;;;;;4.80;3.67;;;5.50;16.60;;;;;;5046146;28;20456;-62
2023/01/30 09:31:50;;;;;;;4.67;4.17;;;5.50;1.00;;;;;;5051266;28;20190;-63
2023/01/30 09:34:16;;;;;;;2.97;2.67;;;5.50;1.00;;;;;;5050516;28;20498;-65
2023/01/30 09:36:41;;;;;;;5.20;3.30;;;5.60;1.00;;;;;;5051258;28;20210;-64
2023/01/30 09:39:07;;;;;;;3.13;2.83;;;5.60;1.00;;;;;;5051193;28;20178;-64
2023/01/30 09:41:57;;;;;;;2.87;2.63;;;5.60;1.00;;;;;;5050807;28;20269;-63
2023/01/30 09:44:50;;;;;;;2.97;2.67;;;5.60;1.00;;;;;;5050319;28;20567;-63
2023/01/30 09:47:34;;;;;;;3.10;2.60;;;5.70;1.00;;;;;;5051198;28;20529;-62
2023/01/30 09:50:15;;;;;;;3.20;2.90;;;5.80;1.00;;;;;;5043213;28;20456;-63
2023/01/30 09:53:01;;;;;;;3.47;3.07;;;5.80;1.00;;;;;;5068531;28;20467;-63
2023/01/30 09:55:30;;;;;;;3.00;2.57;;;5.80;1.00;;;;;;5070660;28;20551;-63
2023/01/30 09:57:58;;;;;;;3.77;3.03;;;5.70;1.00;;;;;;5068483;28;20935;-62
2023/01/30 10:00:38;;;;;;;3.40;3.10;;;5.80;1.00;;;;;;5047634;28;20421;-62
2023/01/30 10:03:11;;;;;;;2.90;2.60;;;5.90;1.00;;;;;;5049639;28;20437;-63
2023/01/30 10:05:45;;;;;;;4.53;2.33;;;5.90;1.00;;;;;;5048858;28;20446;-64
2023/01/30 10:08:41;;;;;;;3.67;3.20;;;5.90;1.00;;;;;;5048884;28;20551;-63
2023/01/30 10:11:17;;;;;;;2.40;2.20;;;6.20;1.00;;;;;;5050066;28;20486;-63
2023/01/30 10:13:42;;;;;;;2.50;2.10;;;6.30;1.00;;;;;;5044432;28;20449;-63
2023/01/30 10:16:30;;;;;;;2.37;2.03;;;6.40;1.00;;;;;;5044304;28;20566;-61
2023/01/30 10:19:17;;;;;;;2.50;2.30;;;6.30;1.00;;;;;;5050578;28;20185;-62
2023/01/30 10:21:56;;;;;;;2.33;2.13;;;6.40;1.00;;;;;;5048539;28;20480;-62
2023/01/30 10:24:43;;;;;;;2.20;2.00;;;6.40;1.00;;;;;;5056087;28;20843;-63
2023/01/30 10:27:12;;;;;;;1.73;1.63;;;6.50;1.00;;;;;;5047746;28;20550;-62
2023/01/30 10:29:39;;;;;;;2.37;2.17;;;6.50;1.00;;;;;;5050080;28;20941;-62
2023/01/30 10:32:17;;;;;;;2.77;1.97;;;6.40;1.00;;;;;;5048295;28;20450;-65
2023/01/30 10:34:52;;;;;;;2.20;1.90;;;6.40;1.00;;;;;;5047859;28;21170;-63
2023/01/30 10:37:39;;;;;;;2.30;2.10;;;6.30;1.00;;;;;;5050244;28;20938;-64
2023/01/30 10:40:18;;;;;;;2.80;1.93;;;6.20;1.00;;;;;;5044026;28;20612;-64
2023/01/30 10:42:54;;;;;;;2.60;2.40;;;6.20;1.00;;;;;;5050174;28;20904;-63
2023/01/30 10:45:31;;;;;;;1.87;1.67;;;6.30;1.00;;;;;;5044954;28;20731;-64
2023/01/30 10:48:15;;;;;;;3.43;2.40;;;6.10;1.00;;;;;;5054515;28;21132;-63
2023/01/30 10:50:58;;;;;;;2.60;1.80;;;6.30;1.00;;;;;;5041841;28;20446;-63
2023/01/30 10:53:41;;;;;;;2.03;1.77;;;6.30;1.00;;;;;;5047369;28;21214;-64
2023/01/30 10:56:19;;;;;;;4.30;2.00;;;6.30;1.00;;;;;;5054583;28;20471;-63
2023/01/30 10:58:45;;;;;;;1.97;1.80;;;6.30;1.00;;;;;;5045491;28;20423;-63
2023/01/30 11:01:24;;;;;;;2.00;1.90;;;6.10;1.00;;;;;;5047597;28;20423;-64
2023/01/30 11:04:00;;;;;;;2.50;2.07;;;6.20;1.00;;;;;;5045694;28;20195;-63
2023/01/30 11:06:26;;;;;;;3.10;2.13;;;6.20;1.00;;;;;;5042155;28;20456;-64
2023/01/30 11:08:53;;;;;;;2.60;1.80;;;6.20;1.00;;;;;;5049200;28;20547;-64
2023/01/30 11:11:43;;;;;;;2.77;1.70;;;6.20;1.00;;;;;;5047524;28;20196;-64
2023/01/30 11:14:11;;;;;;;2.60;1.80;;;6.10;1.00;;;;;;5047602;28;20434;-64
2023/01/30 11:16:55;;;;;;;2.47;2.20;;;6.10;1.00;;;;;;5045663;28;20859;-63
2023/01/30 11:19:31;;;;;;;2.30;1.70;;;7.50;1.00;;;;;;5045255;28;20452;-63
2023/01/30 11:22:00;;;;;;;3.03;1.77;;;6.20;1.00;;;;;;5045941;28;20440;-63
2023/01/30 11:24:43;;;;;;;2.17;1.77;;;6.20;1.00;;;;;;5048916;28;20420;-63
2023/01/30 11:27:24;;;;;;;3.83;2.47;;;6.20;1.00;;;;;;5046770;28;20506;-63
2023/01/30 11:30:00;;;;;;;1.93;1.70;;;5.90;1.00;;;;;;5047176;28;20433;-63
2023/01/30 11:32:28;;;;;;;2.10;2.00;;;5.80;1.00;;;;;;5045053;28;20434;-63
2023/01/30 11:35:21;;;;;;;3.30;2.30;;;5.80;1.00;;;;;;5040892;28;20448;-64
2023/01/30 11:37:49;;;;;;;1.97;1.77;;;5.70;1.00;;;;;;5047348;28;20440;-63
2023/01/30 11:40:18;;;;;;;2.90;2.30;;;5.60;1.00;;;;;;5044524;28;20443;-64
2023/01/30 11:42:47;;;;;;;2.90;2.27;;;5.70;1.00;;;;;;5042910;28;20456;-63
2023/01/30 11:45:14;;;;;;;2.53;2.33;;;5.70;1.00;;;;;;5053044;28;20507;-63
2023/01/30 11:47:53;;;;;;;3.07;2.77;;;5.60;1.00;;;;;;5045392;28;20828;-63
2023/01/30 11:50:20;;;;;;;3.60;2.97;;;5.60;1.00;;;;;;5051567;28;20455;-64
2023/01/30 11:52:46;;;;;;;2.23;2.03;;;5.60;1.00;;;;;;5043544;28;20476;-63
2023/01/30 11:55:21;;;;;;;2.60;2.40;;;5.60;1.00;;;;;;5048336;28;20524;-62
2023/01/30 11:57:52;;;;;;;3.67;2.73;;;5.60;1.00;;;;;;5045280;28;20540;-64
2023/01/30 12:00:22;;;;;;;2.57;2.37;;;5.70;1.00;;;;;;5048829;28;20902;-63
2023/01/30 12:02:49;;;;;;;2.87;2.17;;;5.70;1.00;;;;;;5042002;28;20944;-59
2023/01/30 12:05:27;;;;;;;3.07;2.50;;;5.60;1.00;;;;;;5056009;28;20507;-59
2023/01/30 12:08:33;;;;;;;3.17;2.87;;;5.70;1.00;;;;;;5057796;28;20438;-58
2023/01/30 12:11:01;;;;;;;6.00;2.80;;;5.80;1.00;;;;;;5047034;28;20431;-59
2023/01/30 12:13:31;;;;;;;2.50;2.23;;;5.70;1.00;;;;;;5053227;28;20991;-58
2023/01/30 12:16:05;;;;;;;1.70;1.60;;;6.20;1.00;;;;;;5051570;28;20475;-58
2023/01/30 12:18:43;;;;;;;2.87;2.67;;;5.70;1.00;;;;;;5053372;28;20540;-59
2023/01/30 12:21:34;;;;;;;3.30;1.80;;;5.70;1.00;;;;;;5057685;28;20449;-58
2023/01/30 12:24:10;;;;;;;2.90;2.37;;;5.90;1.00;;;;;;5058911;28;20436;-60
2023/01/30 12:27:22;;;;;;;3.03;2.27;;;6.00;1.00;;;;;;5049919;28;20502;-60
2023/01/30 12:30:13;;;;;;;2.13;1.93;;;6.20;1.00;;;;;;5044363;28;20455;-58
2023/01/30 12:32:39;;;;;;;2.77;2.07;;;6.20;1.00;;;;;;5050186;28;20443;-59
2023/01/30 12:35:16;;;;;;;2.73;1.97;;;6.40;1.00;;;;;;5052634;28;20471;-60
2023/01/30 12:38:08;;;;;;;2.23;2.03;;;6.40;1.00;;;;;;5047418;28;20214;-58
2023/01/30 12:40:46;;;;;;;2.47;2.20;;;6.30;1.00;;;;;;5061619;28;20934;-58
2023/01/30 12:43:15;;;;;;;2.60;2.03;;;6.10;1.00;;;;;;5060323;28;20487;-59
2023/01/30 12:45:58;;;;;;;3.80;2.60;;;6.10;1.00;;;;;;5056191;28;20789;-59
2023/01/30 12:48:59;;;;;;;2.53;2.33;;;6.30;1.00;;;;;;5062633;28;20738;-59
2023/01/30 12:52:01;;;;;;;3.30;2.50;;;6.40;1.00;;;;;;5055694;28;20433;-59
2023/01/30 12:54:36;;;;;;;4.37;2.80;;;6.60;1.00;;;;;;5062936;28;20499;-59
2023/01/30 12:57:19;;;;;;;5.77;2.47;;;6.90;1.00;;;;;;5059106;28;20460;-59
2023/01/30 13:00:19;;;;;;;3.70;2.40;;;6.90;1.00;;;;;;5057921;28;20483;-60
2023/01/30 13:03:09;;;;;;;3.33;2.57;;;6.60;1.00;;;;;;5063026;28;20449;-59
2023/01/30 13:05:52;;;;;;;3.20;2.67;;;6.30;1.00;;;;;;5056778;28;20415;-59
2023/01/30 13:08:48;;;;;;;5.30;2.87;;;6.20;1.00;;;;;;5060753;28;20961;-59
2023/01/30 13:11:47;;;;;;;2.37;2.17;;;6.20;1.00;;;;;;5055936;28;20749;-59
2023/01/30 13:14:33;;;;;;;2.50;2.30;;;6.20;1.00;;;;;;5066085;28;20511;-59
2023/01/30 13:17:14;;;;;;;4.13;2.60;;;6.20;1.00;;;;;;5058199;28;20560;-61
2023/01/30 13:20:03;;;;;;;4.00;2.67;;;6.40;1.00;;;;;;5063716;28;20438;-59
2023/01/30 13:22:57;;;;;;;2.87;2.20;;;6.40;21.10;;;;;;5069703;28;20441;-59
2023/01/30 13:25:39;;;;;;;3.40;2.10;;;6.60;1.00;;;;;;5051052;28;20952;-58
2023/01/30 13:28:17;;;;;;;4.23;2.67;;;6.70;1.00;;;;;;5063393;28;20442;-60
2023/01/30 13:30:44;;;;;;;3.77;2.73;;;6.60;1.00;;;;;;5057640;28;20456;-59
2023/01/30 13:33:19;;;;;;;2.77;2.20;;;6.70;1.00;;;;;;5058744;28;20521;-61
2023/01/30 13:36:40;;;;;;;4.60;2.97;;;6.90;1.00;;;;;;5059976;28;20469;-60
2023/01/30 13:39:14;;;;;;;3.27;2.20;;;7.10;1.00;;;;;;5052298;28;20487;-61
2023/01/30 13:41:45;;;;;;;4.60;2.17;;;7.20;1.00;;;;;;5060649;28;20443;-60